sensor_id;sensor_type;location;lat;lon;timestamp;pressure;altitude;pressure_sealevel;temperature;humidity
59289;BME280;45056;47.602;9.886;2022-08-02T00:01:00;93336.81;;;18.70;67.79
59289;BME280;45056;47.602;9.886;2022-08-02T00:03:28;93327.09;;;18.74;67.55
59289;BME280;45056;47.602;9.886;2022-08-02T00:05:56;93331.44;;;18.81;67.31
59289;BME280;45056;47.602;9.886;2022-08-02T00:08:24;93312.69;;;18.85;67.04
59289;BME280;45056;47.602;9.886;2022-08-02T00:10:52;93313.47;;;18.92;66.63
59289;BME280;45056;47.602;9.886;2022-08-02T00:13:20;93306.25;;;18.94;66.37
59289;BME280;45056;47.602;9.886;2022-08-02T00:15:48;93305.00;;;18.95;66.11
59289;BME280;45056;47.602;9.886;2022-08-02T00:18:18;93291.44;;;18.92;65.75
59289;BME280;45056;47.602;9.886;2022-08-02T00:20:46;93299.44;;;18.89;65.39
59289;BME280;45056;47.602;9.886;2022-08-02T00:23:14;93302.44;;;18.92;64.82
59289;BME280;45056;47.602;9.886;2022-08-02T00:25:42;93301.22;;;18.93;64.64
59289;BME280;45056;47.602;9.886;2022-08-02T00:28:10;93298.44;;;18.93;64.17
59289;BME280;45056;47.602;9.886;2022-08-02T00:30:38;93291.69;;;18.94;63.67
59289;BME280;45056;47.602;9.886;2022-08-02T00:33:06;93285.19;;;18.97;63.30
59289;BME280;45056;47.602;9.886;2022-08-02T00:35:36;93276.94;;;18.97;63.22
59289;BME280;45056;47.602;9.886;2022-08-02T00:38:04;93277.22;;;18.99;62.75
59289;BME280;45056;47.602;9.886;2022-08-02T00:40:32;93280.75;;;18.99;62.38
59289;BME280;45056;47.602;9.886;2022-08-02T00:43:02;93279.00;;;19.02;61.89
59289;BME280;45056;47.602;9.886;2022-08-02T00:45:33;93281.28;;;19.03;61.94
59289;BME280;45056;47.602;9.886;2022-08-02T00:48:05;93266.25;;;19.05;61.81
59289;BME280;45056;47.602;9.886;2022-08-02T00:50:36;93279.81;;;19.08;61.83
59289;BME280;45056;47.602;9.886;2022-08-02T00:53:06;93267.81;;;19.11;61.89
59289;BME280;45056;47.602;9.886;2022-08-02T00:55:36;93256.28;;;19.13;61.89
59289;BME280;45056;47.602;9.886;2022-08-02T00:58:05;93261.78;;;19.13;61.83
59289;BME280;45056;47.602;9.886;2022-08-02T01:00:33;93264.56;;;19.13;61.55
59289;BME280;45056;47.602;9.886;2022-08-02T01:03:01;93262.31;;;19.11;61.45
59289;BME280;45056;47.602;9.886;2022-08-02T01:05:29;93265.06;;;19.11;61.11
59289;BME280;45056;47.602;9.886;2022-08-02T01:07:59;93251.00;;;19.09;61.11
59289;BME280;45056;47.602;9.886;2022-08-02T01:10:28;93255.00;;;19.08;61.02
59289;BME280;45056;47.602;9.886;2022-08-02T01:12:57;93244.47;;;19.07;60.72
59289;BME280;45056;47.602;9.886;2022-08-02T01:15:25;93253.50;;;19.07;60.69
59289;BME280;45056;47.602;9.886;2022-08-02T01:18:01;93247.72;;;19.05;60.41
59289;BME280;45056;47.602;9.886;2022-08-02T01:20:48;93251.72;;;19.04;60.47
59289;BME280;45056;47.602;9.886;2022-08-02T01:23:50;93255.22;;;19.05;60.76
59289;BME280;45056;47.602;9.886;2022-08-02T01:26:36;93256.00;;;19.05;60.52
59289;BME280;45056;47.602;9.886;2022-08-02T01:29:16;93265.78;;;19.06;60.76
59289;BME280;45056;47.602;9.886;2022-08-02T01:31:54;93261.00;;;19.07;60.91
59289;BME280;45056;47.602;9.886;2022-08-02T01:34:31;93261.78;;;19.07;61.00
59289;BME280;45056;47.602;9.886;2022-08-02T01:37:08;93262.50;;;19.08;60.63
59289;BME280;45056;47.602;9.886;2022-08-02T01:39:53;93255.00;;;19.08;60.54
59289;BME280;45056;47.602;9.886;2022-08-02T01:42:25;93250.75;;;19.07;60.52
59289;BME280;45056;47.602;9.886;2022-08-02T01:44:59;93256.53;;;19.09;60.75
59289;BME280;45056;47.602;9.886;2022-08-02T01:47:32;93258.03;;;19.10;60.78
59289;BME280;45056;47.602;9.886;2022-08-02T01:50:05;93258.03;;;19.10;60.66
59289;BME280;45056;47.602;9.886;2022-08-02T01:52:38;93251.53;;;19.13;60.56
59289;BME280;45056;47.602;9.886;2022-08-02T01:55:17;93265.59;;;19.15;60.64
59289;BME280;45056;47.602;9.886;2022-08-02T01:57:54;93263.31;;;19.14;60.54
59289;BME280;45056;47.602;9.886;2022-08-02T02:00:29;93259.03;;;19.13;60.48
59289;BME280;45056;47.602;9.886;2022-08-02T02:03:06;93266.56;;;19.12;60.61
59289;BME280;45056;47.602;9.886;2022-08-02T02:05:40;93268.09;;;19.13;60.86
59289;BME280;45056;47.602;9.886;2022-08-02T02:08:11;93268.81;;;19.14;60.98
59289;BME280;45056;47.602;9.886;2022-08-02T02:10:42;93265.06;;;19.11;61.19
59289;BME280;45056;47.602;9.886;2022-08-02T02:13:16;93254.03;;;19.11;61.35
59289;BME280;45056;47.602;9.886;2022-08-02T02:15:48;93259.28;;;19.09;61.36
59289;BME280;45056;47.602;9.886;2022-08-02T02:18:22;93256.00;;;19.05;61.47
59289;BME280;45056;47.602;9.886;2022-08-02T02:20:53;93253.91;;;19.00;61.48
59289;BME280;45056;47.602;9.886;2022-08-02T02:23:22;93257.63;;;18.97;61.61
59289;BME280;45056;47.602;9.886;2022-08-02T02:25:52;93245.09;;;18.96;61.67
59289;BME280;45056;47.602;9.886;2022-08-02T02:28:25;93242.84;;;18.94;61.98
59289;BME280;45056;47.602;9.886;2022-08-02T02:31:01;93254.59;;;18.95;61.93
59289;BME280;45056;47.602;9.886;2022-08-02T02:33:34;93249.59;;;18.93;62.13
59289;BME280;45056;47.602;9.886;2022-08-02T02:36:08;93255.31;;;18.89;62.51
59289;BME280;45056;47.602;9.886;2022-08-02T02:38:39;93253.28;;;18.84;62.81
59289;BME280;45056;47.602;9.886;2022-08-02T02:41:10;93244.22;;;18.78;63.13
59289;BME280;45056;47.602;9.886;2022-08-02T02:43:42;93243.66;;;18.74;63.21
59289;BME280;45056;47.602;9.886;2022-08-02T02:46:16;93243.13;;;18.70;63.19
59289;BME280;45056;47.602;9.886;2022-08-02T02:48:49;93240.09;;;18.68;63.59
59289;BME280;45056;47.602;9.886;2022-08-02T02:51:19;93243.56;;;18.63;63.77
59289;BME280;45056;47.602;9.886;2022-08-02T02:53:50;93239.00;;;18.59;63.79
59289;BME280;45056;47.602;9.886;2022-08-02T02:56:20;93243.28;;;18.60;63.91
59289;BME280;45056;47.602;9.886;2022-08-02T02:58:49;93234.75;;;18.58;64.00
59289;BME280;45056;47.602;9.886;2022-08-02T03:01:22;93236.47;;;18.56;63.95
59289;BME280;45056;47.602;9.886;2022-08-02T03:04:00;93236.97;;;18.54;63.71
59289;BME280;45056;47.602;9.886;2022-08-02T03:06:32;93231.66;;;18.51;63.96
59289;BME280;45056;47.602;9.886;2022-08-02T03:09:02;93235.41;;;18.48;63.95
59289;BME280;45056;47.602;9.886;2022-08-02T03:11:31;93237.88;;;18.45;64.15
59289;BME280;45056;47.602;9.886;2022-08-02T03:14:04;93240.16;;;18.47;63.95
59289;BME280;45056;47.602;9.886;2022-08-02T03:16:43;93238.16;;;18.48;64.36
59289;BME280;45056;47.602;9.886;2022-08-02T03:19:13;93236.16;;;18.48;64.19
59289;BME280;45056;47.602;9.886;2022-08-02T03:21:44;93240.16;;;18.47;64.14
59289;BME280;45056;47.602;9.886;2022-08-02T03:24:13;93235.13;;;18.45;64.21
59289;BME280;45056;47.602;9.886;2022-08-02T03:26:42;93237.13;;;18.45;64.24
59289;BME280;45056;47.602;9.886;2022-08-02T03:29:10;93237.88;;;18.45;64.16
59289;BME280;45056;47.602;9.886;2022-08-02T03:31:42;93243.66;;;18.48;64.38
59289;BME280;45056;47.602;9.886;2022-08-02T03:34:13;93241.94;;;18.50;64.32
59289;BME280;45056;47.602;9.886;2022-08-02T03:36:42;93244.19;;;18.52;64.15
59289;BME280;45056;47.602;9.886;2022-08-02T03:39:14;93250.25;;;18.56;64.34
59289;BME280;45056;47.602;9.886;2022-08-02T03:41:47;93245.50;;;18.56;64.21
59289;BME280;45056;47.602;9.886;2022-08-02T03:44:16;93250.03;;;18.59;63.99
59289;BME280;45056;47.602;9.886;2022-08-02T03:46:46;93244.53;;;18.59;64.09
59289;BME280;45056;47.602;9.886;2022-08-02T03:49:15;93240.53;;;18.60;63.85
59289;BME280;45056;47.602;9.886;2022-08-02T03:51:45;93236.25;;;18.59;63.68
59289;BME280;45056;47.602;9.886;2022-08-02T03:54:16;93243.28;;;18.60;63.81
59289;BME280;45056;47.602;9.886;2022-08-02T03:56:46;93233.78;;;18.62;63.73
59289;BME280;45056;47.602;9.886;2022-08-02T03:59:14;93238.28;;;18.59;63.86
59289;BME280;45056;47.602;9.886;2022-08-02T04:01:42;93237.44;;;18.53;63.76
59289;BME280;45056;47.602;9.886;2022-08-02T04:04:13;93228.09;;;18.44;63.76
59289;BME280;45056;47.602;9.886;2022-08-02T04:06:41;93235.75;;;18.35;64.16
59289;BME280;45056;47.602;9.886;2022-08-02T04:09:09;93238.41;;;18.23;64.65
59289;BME280;45056;47.602;9.886;2022-08-02T04:11:37;93232.78;;;18.12;64.97
59289;BME280;45056;47.602;9.886;2022-08-02T04:14:06;93235.19;;;18.04;65.37
59289;BME280;45056;47.602;9.886;2022-08-02T04:16:43;93244.69;;;18.03;65.35
59289;BME280;45056;47.602;9.886;2022-08-02T04:19:20;93242.69;;;18.03;65.33
59289;BME280;45056;47.602;9.886;2022-08-02T04:21:57;93242.22;;;18.05;65.20
59289;BME280;45056;47.602;9.886;2022-08-02T04:24:35;93241.53;;;18.10;64.95
59289;BME280;45056;47.602;9.886;2022-08-02T04:27:08;93241.59;;;18.16;65.16
59289;BME280;45056;47.602;9.886;2022-08-02T04:29:39;93244.38;;;18.22;64.79
59289;BME280;45056;47.602;9.886;2022-08-02T04:32:09;93239.94;;;18.24;64.88
59289;BME280;45056;47.602;9.886;2022-08-02T04:34:40;93239.72;;;18.28;64.51
59289;BME280;45056;47.602;9.886;2022-08-02T04:37:11;93241.97;;;18.29;64.61
59289;BME280;45056;47.602;9.886;2022-08-02T04:39:41;93240.72;;;18.30;64.70
59289;BME280;45056;47.602;9.886;2022-08-02T04:42:09;93241.50;;;18.31;64.70
59289;BME280;45056;47.602;9.886;2022-08-02T04:44:37;93246.78;;;18.35;64.45
59289;BME280;45056;47.602;9.886;2022-08-02T04:47:05;93250.38;;;18.41;64.26
59289;BME280;45056;47.602;9.886;2022-08-02T04:49:33;93250.91;;;18.45;64.23
59289;BME280;45056;47.602;9.886;2022-08-02T04:52:03;93258.47;;;18.50;64.09
59289;BME280;45056;47.602;9.886;2022-08-02T04:54:31;93251.50;;;18.55;64.07
59289;BME280;45056;47.602;9.886;2022-08-02T04:56:59;93257.00;;;18.55;64.14
59289;BME280;45056;47.602;9.886;2022-08-02T04:59:47;93252.53;;;18.57;64.34
59289;BME280;45056;47.602;9.886;2022-08-02T05:02:15;93256.78;;;18.58;64.54
59289;BME280;45056;47.602;9.886;2022-08-02T05:04:43;93257.56;;;18.59;64.51
59289;BME280;45056;47.602;9.886;2022-08-02T05:07:13;93258.81;;;18.58;64.33
59289;BME280;45056;47.602;9.886;2022-08-02T05:09:40;93257.84;;;18.61;64.26
59289;BME280;45056;47.602;9.886;2022-08-02T05:12:09;93264.75;;;18.77;63.89
59289;BME280;45056;47.602;9.886;2022-08-02T05:14:36;93258.84;;;19.54;62.46
59289;BME280;45056;47.602;9.886;2022-08-02T05:17:04;93261.34;;;21.59;57.62
59289;BME280;45056;47.602;9.886;2022-08-02T05:19:32;93258.59;;;24.49;50.78
59289;BME280;45056;47.602;9.886;2022-08-02T05:22:00;93260.22;;;27.17;44.40
59289;BME280;45056;47.602;9.886;2022-08-02T05:24:30;93260.31;;;29.30;39.66
59289;BME280;45056;47.602;9.886;2022-08-02T05:26:58;93260.13;;;31.27;35.65
59289;BME280;45056;47.602;9.886;2022-08-02T05:29:26;93263.34;;;33.05;32.65
59289;BME280;45056;47.602;9.886;2022-08-02T05:31:54;93268.97;;;34.74;29.78
59289;BME280;45056;47.602;9.886;2022-08-02T05:34:22;93265.44;;;36.17;27.60
59289;BME280;45056;47.602;9.886;2022-08-02T05:36:50;93269.25;;;36.87;25.92
59289;BME280;45056;47.602;9.886;2022-08-02T05:39:18;93268.81;;;36.69;25.55
59289;BME280;45056;47.602;9.886;2022-08-02T05:41:47;93278.25;;;35.25;26.91
59289;BME280;45056;47.602;9.886;2022-08-02T05:44:15;93280.28;;;33.60;29.22
59289;BME280;45056;47.602;9.886;2022-08-02T05:46:43;93274.50;;;32.67;30.64
59289;BME280;45056;47.602;9.886;2022-08-02T05:49:12;93284.25;;;32.31;31.21
59289;BME280;45056;47.602;9.886;2022-08-02T05:51:50;93268.78;;;32.40;31.44
59289;BME280;45056;47.602;9.886;2022-08-02T05:54:30;93264.00;;;31.90;31.96
59289;BME280;45056;47.602;9.886;2022-08-02T05:57:18;93263.22;;;30.57;33.77
59289;BME280;45056;47.602;9.886;2022-08-02T06:00:03;93273.50;;;28.99;36.56
59289;BME280;45056;47.602;9.886;2022-08-02T06:02:49;93270.88;;;27.61;39.02
59289;BME280;45056;47.602;9.886;2022-08-02T06:05:33;93273.88;;;26.46;41.27
59289;BME280;45056;47.602;9.886;2022-08-02T06:08:02;93272.53;;;25.53;43.56
59289;BME280;45056;47.602;9.886;2022-08-02T06:10:39;93289.59;;;24.78;45.21
59289;BME280;45056;47.602;9.886;2022-08-02T06:13:12;93277.19;;;24.16;46.63
59289;BME280;45056;47.602;9.886;2022-08-02T06:15:42;93280.69;;;23.67;48.00
59289;BME280;45056;47.602;9.886;2022-08-02T06:18:11;93286.34;;;23.25;49.32
59289;BME280;45056;47.602;9.886;2022-08-02T06:20:39;93281.28;;;22.87;50.52
59289;BME280;45056;47.602;9.886;2022-08-02T06:23:08;93281.44;;;22.58;51.60
59289;BME280;45056;47.602;9.886;2022-08-02T06:25:37;93283.78;;;22.37;51.96
59289;BME280;45056;47.602;9.886;2022-08-02T06:28:10;93277.56;;;22.19;52.46
59289;BME280;45056;47.602;9.886;2022-08-02T06:30:43;93272.31;;;22.04;52.74
59289;BME280;45056;47.602;9.886;2022-08-02T06:33:11;93270.84;;;21.92;53.28
59289;BME280;45056;47.602;9.886;2022-08-02T06:35:45;93268.34;;;21.83;53.56
59289;BME280;45056;47.602;9.886;2022-08-02T06:38:23;93270.38;;;21.76;53.85
59289;BME280;45056;47.602;9.886;2022-08-02T06:40:58;93269.16;;;21.72;53.92
59289;BME280;45056;47.602;9.886;2022-08-02T06:43:39;93264.63;;;21.69;54.28
59289;BME280;45056;47.602;9.886;2022-08-02T06:46:13;93269.88;;;21.67;54.56
59289;BME280;45056;47.602;9.886;2022-08-02T06:48:41;93264.84;;;21.76;54.54
59289;BME280;45056;47.602;9.886;2022-08-02T06:51:09;93262.56;;;21.86;54.28
59289;BME280;45056;47.602;9.886;2022-08-02T06:53:38;93257.78;;;21.87;54.33
59289;BME280;45056;47.602;9.886;2022-08-02T06:56:07;93256.28;;;21.86;54.59
59289;BME280;45056;47.602;9.886;2022-08-02T06:58:37;93262.31;;;21.84;54.93
59289;BME280;45056;47.602;9.886;2022-08-02T07:01:06;93260.03;;;21.88;55.35
59289;BME280;45056;47.602;9.886;2022-08-02T07:03:36;93263.81;;;21.91;55.61
59289;BME280;45056;47.602;9.886;2022-08-02T07:06:06;93265.84;;;21.85;55.89
59289;BME280;45056;47.602;9.886;2022-08-02T07:08:36;93262.59;;;21.75;56.35
59289;BME280;45056;47.602;9.886;2022-08-02T07:11:07;93268.91;;;21.64;56.64
59289;BME280;45056;47.602;9.886;2022-08-02T07:13:37;93273.94;;;21.60;56.75
59289;BME280;45056;47.602;9.886;2022-08-02T07:16:05;93263.88;;;21.57;56.78
59289;BME280;45056;47.602;9.886;2022-08-02T07:18:34;93266.88;;;21.59;56.94
59289;BME280;45056;47.602;9.886;2022-08-02T07:21:02;93269.38;;;21.62;56.73
59289;BME280;45056;47.602;9.886;2022-08-02T07:23:32;93277.47;;;21.66;56.70
59289;BME280;45056;47.602;9.886;2022-08-02T07:26:00;93273.69;;;21.69;56.91
59289;BME280;45056;47.602;9.886;2022-08-02T07:28:28;93275.19;;;21.70;56.93
59289;BME280;45056;47.602;9.886;2022-08-02T07:30:57;93280.97;;;21.72;57.16
59289;BME280;45056;47.602;9.886;2022-08-02T07:33:25;93282.47;;;21.73;57.34
59289;BME280;45056;47.602;9.886;2022-08-02T07:35:53;93281.97;;;21.75;57.49
59289;BME280;45056;47.602;9.886;2022-08-02T07:38:22;93292.53;;;21.76;57.53
59289;BME280;45056;47.602;9.886;2022-08-02T07:40:50;93279.19;;;21.81;57.64
59289;BME280;45056;47.602;9.886;2022-08-02T07:43:18;93279.44;;;21.83;57.18
59289;BME280;45056;47.602;9.886;2022-08-02T07:45:46;93284.47;;;21.84;56.68
59289;BME280;45056;47.602;9.886;2022-08-02T07:48:16;93286.22;;;21.87;56.29
59289;BME280;45056;47.602;9.886;2022-08-02T07:50:44;93284.47;;;21.90;56.39
59289;BME280;45056;47.602;9.886;2022-08-02T07:53:12;93280.91;;;21.95;56.55
59289;BME280;45056;47.602;9.886;2022-08-02T07:55:40;93285.94;;;21.97;56.19
59289;BME280;45056;47.602;9.886;2022-08-02T07:58:09;93271.84;;;22.00;56.13
59289;BME280;45056;47.602;9.886;2022-08-02T08:00:37;93273.09;;;22.05;56.03
59289;BME280;45056;47.602;9.886;2022-08-02T08:03:06;93275.34;;;22.07;56.65
59289;BME280;45056;47.602;9.886;2022-08-02T08:05:35;93277.88;;;22.04;57.38
59289;BME280;45056;47.602;9.886;2022-08-02T08:08:04;93273.09;;;21.99;58.12
59289;BME280;45056;47.602;9.886;2022-08-02T08:10:32;93274.84;;;21.97;58.08
59289;BME280;45056;47.602;9.886;2022-08-02T08:13:00;93278.41;;;21.97;58.41
59289;BME280;45056;47.602;9.886;2022-08-02T08:15:28;93276.13;;;21.96;58.96
59289;BME280;45056;47.602;9.886;2022-08-02T08:17:56;93274.63;;;21.95;59.04
59289;BME280;45056;47.602;9.886;2022-08-02T08:20:24;93276.13;;;21.96;59.21
59289;BME280;45056;47.602;9.886;2022-08-02T08:22:54;93282.19;;;22.00;58.81
59289;BME280;45056;47.602;9.886;2022-08-02T08:25:22;93280.13;;;22.06;58.88
59289;BME280;45056;47.602;9.886;2022-08-02T08:27:51;93281.34;;;22.16;58.97
59289;BME280;45056;47.602;9.886;2022-08-02T08:30:20;93274.78;;;22.25;58.12
59289;BME280;45056;47.602;9.886;2022-08-02T08:32:48;93275.50;;;22.31;58.21
59289;BME280;45056;47.602;9.886;2022-08-02T08:35:17;93279.53;;;22.36;58.19
59289;BME280;45056;47.602;9.886;2022-08-02T08:37:45;93275.47;;;22.37;58.14
59289;BME280;45056;47.602;9.886;2022-08-02T08:40:24;93275.19;;;22.41;58.29
59289;BME280;45056;47.602;9.886;2022-08-02T08:42:52;93269.16;;;22.48;58.28
59289;BME280;45056;47.602;9.886;2022-08-02T08:45:20;93273.91;;;22.53;57.90
59289;BME280;45056;47.602;9.886;2022-08-02T08:47:52;93270.13;;;22.56;57.55
59289;BME280;45056;47.602;9.886;2022-08-02T08:50:26;93267.81;;;22.60;57.40
59289;BME280;45056;47.602;9.886;2022-08-02T08:53:03;93274.88;;;22.61;57.68
59289;BME280;45056;47.602;9.886;2022-08-02T08:55:36;93276.16;;;22.60;57.82
59289;BME280;45056;47.602;9.886;2022-08-02T08:58:05;93278.91;;;22.60;58.06
59289;BME280;45056;47.602;9.886;2022-08-02T09:00:34;93277.41;;;22.59;57.77
59289;BME280;45056;47.602;9.886;2022-08-02T09:03:03;93273.13;;;22.58;58.16
59289;BME280;45056;47.602;9.886;2022-08-02T09:05:33;93269.09;;;22.59;57.96
59289;BME280;45056;47.602;9.886;2022-08-02T09:08:03;93268.56;;;22.61;57.80
59289;BME280;45056;47.602;9.886;2022-08-02T09:10:35;93271.06;;;22.65;58.11
59289;BME280;45056;47.602;9.886;2022-08-02T09:13:12;93278.84;;;22.72;58.09
59289;BME280;45056;47.602;9.886;2022-08-02T09:15:44;93281.09;;;22.79;57.76
59289;BME280;45056;47.602;9.886;2022-08-02T09:18:19;93276.03;;;22.83;57.17
59289;BME280;45056;47.602;9.886;2022-08-02T09:20:52;93280.53;;;22.86;57.09
59289;BME280;45056;47.602;9.886;2022-08-02T09:23:24;93275.97;;;22.89;57.20
59289;BME280;45056;47.602;9.886;2022-08-02T09:26:03;93277.44;;;22.96;57.18
59289;BME280;45056;47.602;9.886;2022-08-02T09:28:35;93277.69;;;22.98;57.07
59289;BME280;45056;47.602;9.886;2022-08-02T09:31:06;93267.81;;;23.02;56.82
59289;BME280;45056;47.602;9.886;2022-08-02T09:33:37;93279.38;;;23.06;56.71
59289;BME280;45056;47.602;9.886;2022-08-02T09:36:08;93274.84;;;23.09;56.65
59289;BME280;45056;47.602;9.886;2022-08-02T09:38:39;93279.34;;;23.12;56.46
59289;BME280;45056;47.602;9.886;2022-08-02T09:41:22;93278.09;;;23.13;56.40
59289;BME280;45056;47.602;9.886;2022-08-02T09:43:53;93277.06;;;23.16;56.32
59289;BME280;45056;47.602;9.886;2022-08-02T09:46:24;93278.03;;;23.19;56.17
59289;BME280;45056;47.602;9.886;2022-08-02T09:48:55;93279.03;;;23.22;55.95
59289;BME280;45056;47.602;9.886;2022-08-02T09:51:27;93272.94;;;23.23;55.74
59289;BME280;45056;47.602;9.886;2022-08-02T09:53:59;93272.47;;;23.25;55.45
59289;BME280;45056;47.602;9.886;2022-08-02T09:56:41;93274.22;;;23.28;55.25
59289;BME280;45056;47.602;9.886;2022-08-02T09:59:13;93281.25;;;23.29;54.60
59289;BME280;45056;47.602;9.886;2022-08-02T10:01:45;93283.53;;;23.30;54.12
59289;BME280;45056;47.602;9.886;2022-08-02T10:04:16;93275.72;;;23.29;53.59
59289;BME280;45056;47.602;9.886;2022-08-02T10:06:48;93276.47;;;23.29;53.92
59289;BME280;45056;47.602;9.886;2022-08-02T10:09:18;93278.72;;;23.31;53.65
59289;BME280;45056;47.602;9.886;2022-08-02T10:11:50;93276.19;;;23.33;53.47
59289;BME280;45056;47.602;9.886;2022-08-02T10:14:19;93272.38;;;23.36;52.98
59289;BME280;45056;47.602;9.886;2022-08-02T10:16:49;93270.59;;;23.39;52.85
59289;BME280;45056;47.602;9.886;2022-08-02T10:19:19;93273.09;;;23.42;52.83
59289;BME280;45056;47.602;9.886;2022-08-02T10:21:54;93276.84;;;23.45;52.63
59289;BME280;45056;47.602;9.886;2022-08-02T10:24:27;93275.06;;;23.47;52.30
59289;BME280;45056;47.602;9.886;2022-08-02T10:27:00;93275.53;;;23.52;51.80
59289;BME280;45056;47.602;9.886;2022-08-02T10:29:34;93269.66;;;23.55;51.71
59289;BME280;45056;47.602;9.886;2022-08-02T10:32:07;93269.41;;;23.59;51.13
59289;BME280;45056;47.602;9.886;2022-08-02T10:34:44;93264.31;;;23.63;50.67
59289;BME280;45056;47.602;9.886;2022-08-02T10:37:16;93263.25;;;23.66;50.44
59289;BME280;45056;47.602;9.886;2022-08-02T10:39:45;93258.97;;;23.65;50.16
59289;BME280;45056;47.602;9.886;2022-08-02T10:42:44;93257.47;;;23.64;49.96
59289;BME280;45056;47.602;9.886;2022-08-02T10:45:16;93254.94;;;23.66;49.95
59289;BME280;45056;47.602;9.886;2022-08-02T10:48:03;93249.84;;;23.70;49.35
59289;BME280;45056;47.602;9.886;2022-08-02T10:50:56;93248.00;;;23.78;49.02
59289;BME280;45056;47.602;9.886;2022-08-02T10:53:30;93251.94;;;23.89;48.78
59289;BME280;45056;47.602;9.886;2022-08-02T10:56:01;93252.31;;;24.04;48.31
59289;BME280;45056;47.602;9.886;2022-08-02T10:58:33;93242.03;;;24.18;47.92
59289;BME280;45056;47.602;9.886;2022-08-02T11:01:04;93246.63;;;24.35;47.89
59289;BME280;45056;47.602;9.886;2022-08-02T11:03:56;93245.66;;;24.52;48.60
59289;BME280;45056;47.602;9.886;2022-08-02T11:06:26;93234.59;;;24.65;48.73
59289;BME280;45056;47.602;9.886;2022-08-02T11:09:24;93245.72;;;24.84;48.13
59289;BME280;45056;47.602;9.886;2022-08-02T11:12:01;93240.69;;;25.02;47.79
59289;BME280;45056;47.602;9.886;2022-08-02T11:14:35;93240.94;;;25.17;47.07
59289;BME280;45056;47.602;9.886;2022-08-02T11:17:10;93236.91;;;25.32;46.98
59289;BME280;45056;47.602;9.886;2022-08-02T11:20:16;93241.25;;;25.46;46.57
59289;BME280;45056;47.602;9.886;2022-08-02T11:22:46;93237.00;;;25.59;45.83
59289;BME280;45056;47.602;9.886;2022-08-02T11:25:31;93230.16;;;25.73;45.73
59289;BME280;45056;47.602;9.886;2022-08-02T11:28:08;93234.22;;;25.86;45.98
59289;BME280;45056;47.602;9.886;2022-08-02T11:30:39;93231.22;;;25.97;46.47
59289;BME280;45056;47.602;9.886;2022-08-02T11:33:07;93224.69;;;26.08;45.54
59289;BME280;45056;47.602;9.886;2022-08-02T11:35:37;93220.19;;;26.18;45.42
59289;BME280;45056;47.602;9.886;2022-08-02T11:38:14;93227.59;;;26.29;44.96
59289;BME280;45056;47.602;9.886;2022-08-02T11:40:45;93224.91;;;26.37;45.07
59289;BME280;45056;47.602;9.886;2022-08-02T11:43:16;93222.19;;;26.45;44.89
59289;BME280;45056;47.602;9.886;2022-08-02T11:45:48;93223.78;;;26.54;44.21
59289;BME280;45056;47.602;9.886;2022-08-02T11:48:32;93225.38;;;26.62;43.80
59289;BME280;45056;47.602;9.886;2022-08-02T11:51:13;93227.47;;;26.70;42.85
59289;BME280;45056;47.602;9.886;2022-08-02T11:53:47;93218.78;;;26.73;42.46
59289;BME280;45056;47.602;9.886;2022-08-02T11:56:18;93219.94;;;26.78;42.87
59289;BME280;45056;47.602;9.886;2022-08-02T11:59:04;93224.34;;;26.87;43.33
59289;BME280;45056;47.602;9.886;2022-08-02T12:01:37;93227.75;;;26.93;42.28
59289;BME280;45056;47.602;9.886;2022-08-02T12:04:06;93231.19;;;26.99;42.09
59289;BME280;45056;47.602;9.886;2022-08-02T12:06:34;93217.97;;;27.00;41.27
59289;BME280;45056;47.602;9.886;2022-08-02T12:09:03;93225.81;;;27.01;41.07
59289;BME280;45056;47.602;9.886;2022-08-02T12:11:33;93221.72;;;27.02;41.92
59289;BME280;45056;47.602;9.886;2022-08-02T12:14:04;93228.44;;;27.07;42.51
59289;BME280;45056;47.602;9.886;2022-08-02T12:16:35;93223.47;;;27.13;43.08
59289;BME280;45056;47.602;9.886;2022-08-02T12:19:25;93226.34;;;27.21;42.23
59289;BME280;45056;47.602;9.886;2022-08-02T12:22:08;93221.31;;;27.19;41.03
59289;BME280;45056;47.602;9.886;2022-08-02T12:24:39;93219.06;;;27.18;41.38
59289;BME280;45056;47.602;9.886;2022-08-02T12:27:09;93226.34;;;27.21;41.79
59289;BME280;45056;47.602;9.886;2022-08-02T12:29:59;93217.28;;;27.28;41.78
59289;BME280;45056;47.602;9.886;2022-08-02T12:32:30;93219.94;;;27.34;41.29
59289;BME280;45056;47.602;9.886;2022-08-02T12:35:10;93222.59;;;27.40;41.55
59289;BME280;45056;47.602;9.886;2022-08-02T12:37:40;93215.59;;;27.46;42.53
59289;BME280;45056;47.602;9.886;2022-08-02T12:40:21;93224.78;;;27.55;42.18
59289;BME280;45056;47.602;9.886;2022-08-02T12:42:53;93217.00;;;27.61;41.57
59289;BME280;45056;47.602;9.886;2022-08-02T12:45:25;93217.97;;;27.63;41.80
59289;BME280;45056;47.602;9.886;2022-08-02T12:47:57;93221.16;;;27.68;41.98
59289;BME280;45056;47.602;9.886;2022-08-02T12:50:30;93215.41;;;27.73;41.81
59289;BME280;45056;47.602;9.886;2022-08-02T12:53:04;93208.19;;;27.78;41.39
59289;BME280;45056;47.602;9.886;2022-08-02T12:55:34;93208.56;;;27.82;40.58
59289;BME280;45056;47.602;9.886;2022-08-02T12:58:06;93208.22;;;27.86;40.38
59289;BME280;45056;47.602;9.886;2022-08-02T13:00:38;93211.22;;;27.88;40.25
59289;BME280;45056;47.602;9.886;2022-08-02T13:03:08;93211.22;;;27.88;39.80
59289;BME280;45056;47.602;9.886;2022-08-02T13:05:36;93202.28;;;27.89;39.79
59289;BME280;45056;47.602;9.886;2022-08-02T13:08:04;93199.69;;;27.91;39.36
59289;BME280;45056;47.602;9.886;2022-08-02T13:10:33;93209.38;;;27.90;39.36
59289;BME280;45056;47.602;9.886;2022-08-02T13:13:01;93204.19;;;27.94;39.56
59289;BME280;45056;47.602;9.886;2022-08-02T13:15:29;93201.41;;;27.94;39.23
59289;BME280;45056;47.602;9.886;2022-08-02T13:17:57;93203.63;;;27.96;39.13
59289;BME280;45056;47.602;9.886;2022-08-02T13:20:28;93197.50;;;27.98;38.57
59289;BME280;45056;47.602;9.886;2022-08-02T13:22:56;93196.19;;;27.99;38.94
59289;BME280;45056;47.602;9.886;2022-08-02T13:25:25;93199.19;;;28.01;39.03